createdAt,value
2018-11-28T00:00:19.166Z,-1.30
2018-11-28T00:02:47.477Z,-1.30
2018-11-28T00:05:15.774Z,-1.20
2018-11-28T00:07:44.089Z,-1.30
2018-11-28T00:10:13.551Z,-1.20
2018-11-28T00:12:42.166Z,-1.20
2018-11-28T00:15:11.636Z,-1.30
2018-11-28T00:17:39.964Z,-1.50
2018-11-28T00:20:24.318Z,-1.50
2018-11-28T00:22:52.636Z,-1.40
2018-11-28T00:25:21.102Z,-1.60
2018-11-28T00:27:49.417Z,-1.60
2018-11-28T00:30:20.357Z,-1.40
2018-11-28T00:32:48.673Z,-1.30
2018-11-28T00:35:19.080Z,-1.10
2018-11-28T00:37:47.429Z,-1.00
2018-11-28T00:40:17.081Z,-1.00
2018-11-28T00:42:45.398Z,-0.90
2018-11-28T00:45:14.847Z,-0.90
2018-11-28T00:47:43.170Z,-0.90
2018-11-28T00:50:14.417Z,-1.00
2018-11-28T00:52:42.738Z,-1.10
2018-11-28T00:55:12.949Z,-1.20
2018-11-28T00:57:41.378Z,-1.10
2018-11-28T01:00:12.079Z,-1.10
2018-11-28T01:02:40.405Z,-1.00
2018-11-28T01:05:10.107Z,-1.20
2018-11-28T01:07:38.436Z,-1.20
2018-11-28T01:10:10.472Z,-1.50
2018-11-28T01:12:38.797Z,-1.50
2018-11-28T01:15:08.594Z,-1.30
2018-11-28T01:17:36.915Z,-1.30
2018-11-28T01:20:06.989Z,-1.20
2018-11-28T01:22:35.306Z,-1.20
2018-11-28T01:25:03.614Z,-1.20
2018-11-28T01:27:32.848Z,-1.20
2018-11-28T01:30:01.235Z,-1.40
2018-11-28T01:32:29.560Z,-1.60
2018-11-28T01:34:57.865Z,-1.70
2018-11-28T01:37:26.198Z,-1.60
2018-11-28T01:39:54.490Z,-1.60
2018-11-28T01:42:22.798Z,-1.50
2018-11-28T01:44:51.094Z,-1.50
2018-11-28T01:47:19.407Z,-1.50
2018-11-28T01:49:47.721Z,-1.50
2018-11-28T01:52:16.042Z,-1.50
2018-11-28T01:54:44.341Z,-1.50
2018-11-28T01:57:12.724Z,-1.50
2018-11-28T01:59:41.113Z,-1.50
2018-11-28T02:02:10.720Z,-1.50
2018-11-28T02:04:39.503Z,-1.70
2018-11-28T02:07:07.828Z,-1.90
2018-11-28T02:09:36.258Z,-1.90
2018-11-28T02:12:04.579Z,-1.90
2018-11-28T02:14:32.870Z,-1.90
2018-11-28T02:17:01.194Z,-2.00
2018-11-28T02:19:29.581Z,-2.10
2018-11-28T02:21:58.033Z,-2.20
2018-11-28T02:24:26.338Z,-2.20
2018-11-28T02:26:54.659Z,-2.30
2018-11-28T02:29:24.318Z,-2.40
2018-11-28T02:31:51.328Z,-2.40
2018-11-28T02:34:19.724Z,-2.50
2018-11-28T02:36:48.074Z,-2.50
2018-11-28T02:39:16.369Z,-2.50
2018-11-28T02:41:44.671Z,-2.60
2018-11-28T02:44:12.997Z,-2.70
2018-11-28T02:46:41.293Z,-2.80
2018-11-28T02:49:09.630Z,-2.80
2018-11-28T02:51:38.043Z,-2.80
2018-11-28T02:54:06.386Z,-2.90
2018-11-28T02:56:34.682Z,-3.00
2018-11-28T02:59:03.011Z,-3.10
2018-11-28T03:01:31.314Z,-3.20
2018-11-28T03:03:59.638Z,-3.20
2018-11-28T03:06:27.930Z,-3.30
2018-11-28T03:08:56.248Z,-3.30
2018-11-28T03:11:24.555Z,-3.40
2018-11-28T03:13:52.879Z,-3.40
2018-11-28T03:16:21.170Z,-3.40
2018-11-28T03:18:49.488Z,-3.40
2018-11-28T03:21:17.794Z,-3.40
2018-11-28T03:23:46.106Z,-3.30
2018-11-28T03:26:14.403Z,-3.30
2018-11-28T03:28:42.714Z,-3.30
2018-11-28T03:31:11.007Z,-3.20
2018-11-28T03:33:39.333Z,-3.10
2018-11-28T03:36:07.640Z,-3.10
2018-11-28T03:38:35.962Z,-3.20
2018-11-28T03:41:04.257Z,-3.20
2018-11-28T03:43:32.570Z,-3.10
2018-11-28T03:46:00.966Z,-3.10
2018-11-28T03:48:29.306Z,-3.20
2018-11-28T03:50:57.607Z,-3.20
2018-11-28T03:53:25.938Z,-3.10
2018-11-28T03:55:54.293Z,-3.20
2018-11-28T03:58:22.618Z,-3.30
2018-11-28T04:00:50.926Z,-3.20
2018-11-28T04:03:19.250Z,-3.20
2018-11-28T04:05:47.555Z,-3.10
2018-11-28T04:08:15.876Z,-3.10
2018-11-28T04:10:44.174Z,-3.00
2018-11-28T04:13:12.527Z,-3.00
2018-11-28T04:15:40.913Z,-3.00
2018-11-28T04:18:09.230Z,-2.90
2018-11-28T04:20:37.534Z,-3.00
2018-11-28T04:23:05.857Z,-3.20
2018-11-28T04:25:34.630Z,-3.00
2018-11-28T04:28:02.954Z,-2.90
2018-11-28T04:30:31.254Z,-2.90
2018-11-28T04:32:59.584Z,-3.00
2018-11-28T04:35:27.894Z,-2.90
2018-11-28T04:37:56.224Z,-2.80
2018-11-28T04:40:24.548Z,-2.90
2018-11-28T04:42:52.890Z,-2.80
2018-11-28T04:45:22.084Z,-2.90
2018-11-28T04:47:51.012Z,-2.90
2018-11-28T04:50:19.334Z,-3.00
2018-11-28T04:52:47.645Z,-3.00
2018-11-28T04:55:18.732Z,-3.10
2018-11-28T04:57:47.427Z,-3.00
2018-11-28T05:00:19.795Z,-3.10
2018-11-28T05:02:48.289Z,-3.20
2018-11-28T05:05:16.756Z,-3.40
2018-11-28T05:07:45.914Z,-3.50
2018-11-28T05:10:18.103Z,-3.50
2018-11-28T05:12:46.413Z,-3.50
2018-11-28T05:15:16.798Z,-3.50
2018-11-28T05:17:46.426Z,-3.50
2018-11-28T05:20:15.855Z,-3.60
2018-11-28T05:22:44.174Z,-3.70
2018-11-28T05:25:13.880Z,-3.80
2018-11-28T05:27:42.178Z,-3.80
2018-11-28T05:30:11.999Z,-3.80
2018-11-28T05:32:40.361Z,-3.80
2018-11-28T05:35:11.113Z,-3.90
2018-11-28T05:37:39.700Z,-4.00
2018-11-28T05:40:10.190Z,-4.10
2018-11-28T05:42:38.835Z,-4.20
2018-11-28T05:45:09.806Z,-4.20
2018-11-28T05:47:38.263Z,-4.30
2018-11-28T05:50:09.992Z,-4.30
2018-11-28T05:52:38.286Z,-4.30
2018-11-28T05:55:08.403Z,-4.40
2018-11-28T05:57:36.997Z,-4.40
2018-11-28T06:00:11.198Z,-4.50
2018-11-28T06:02:39.698Z,-4.40
2018-11-28T06:05:09.350Z,-4.50
2018-11-28T06:07:37.689Z,-4.50
2018-11-28T06:10:06.940Z,-4.60
2018-11-28T06:12:35.258Z,-4.70
2018-11-28T06:15:03.846Z,-4.70
2018-11-28T06:17:32.144Z,-4.80
2018-11-28T06:20:00.454Z,-4.80
2018-11-28T06:22:28.827Z,-4.80
2018-11-28T06:24:57.149Z,-4.90
2018-11-28T06:27:25.478Z,-5.00
2018-11-28T06:29:53.790Z,-5.00
2018-11-28T06:32:22.107Z,-5.00
2018-11-28T06:34:50.479Z,-5.00
2018-11-28T06:37:18.871Z,-5.10
2018-11-28T06:39:47.194Z,-5.10
2018-11-28T06:42:15.503Z,-5.00
2018-11-28T06:44:43.832Z,-5.00
2018-11-28T06:47:12.136Z,-4.90
2018-11-28T06:49:40.477Z,-4.90
2018-11-28T06:52:08.783Z,-4.80
2018-11-28T06:54:37.351Z,-4.80
2018-11-28T06:57:05.817Z,-4.90
2018-11-28T06:59:34.162Z,-4.90
2018-11-28T07:02:02.478Z,-5.10
2018-11-28T07:04:30.803Z,-5.10
2018-11-28T07:06:59.106Z,-5.10
2018-11-28T07:09:27.434Z,-5.00
2018-11-28T07:11:55.736Z,-5.00
2018-11-28T07:14:24.059Z,-5.00
2018-11-28T07:16:52.362Z,-4.90
2018-11-28T07:19:20.682Z,-4.90
2018-11-28T07:21:48.997Z,-4.90
2018-11-28T07:24:17.317Z,-4.90
2018-11-28T07:26:45.634Z,-4.90
2018-11-28T07:29:13.954Z,-4.90
2018-11-28T07:31:42.258Z,-4.80
2018-11-28T07:34:10.647Z,-4.70
2018-11-28T07:36:38.959Z,-4.70
2018-11-28T07:39:07.418Z,-4.70
2018-11-28T07:41:35.726Z,-4.70
2018-11-28T07:44:04.042Z,-4.70
2018-11-28T07:46:32.358Z,-4.70
2018-11-28T07:49:00.683Z,-4.80
2018-11-28T07:51:29.003Z,-4.70
2018-11-28T07:53:57.303Z,-4.50
2018-11-28T07:56:25.630Z,-4.40
2018-11-28T07:58:53.958Z,-4.40
2018-11-28T08:01:22.282Z,-4.40
2018-11-28T08:03:50.633Z,-4.40
2018-11-28T08:06:18.974Z,-4.20
2018-11-28T08:08:47.282Z,-4.10
2018-11-28T08:11:15.603Z,-4.20
2018-11-28T08:13:43.910Z,-4.00
2018-11-28T08:16:12.256Z,-3.80
2018-11-28T08:18:40.586Z,-3.60
2018-11-28T08:21:09.000Z,-3.50
2018-11-28T08:23:37.304Z,-3.30
2018-11-28T08:26:05.731Z,-3.20
2018-11-28T08:28:34.141Z,-3.40
2018-11-28T08:31:02.466Z,-3.30
2018-11-28T08:33:30.783Z,-3.20
2018-11-28T08:35:59.175Z,-3.00
2018-11-28T08:38:27.556Z,-3.10
2018-11-28T08:40:55.858Z,-3.00
2018-11-28T08:43:24.397Z,-2.70
2018-11-28T08:45:52.906Z,-2.60
2018-11-28T08:48:21.985Z,-2.30
2018-11-28T08:50:50.310Z,-2.10
2018-11-28T08:53:18.619Z,-2.10
2018-11-28T08:55:47.969Z,-2.00
2018-11-28T08:58:16.538Z,-1.90
2018-11-28T09:00:44.871Z,-1.90
2018-11-28T09:03:13.194Z,-1.80
2018-11-28T09:05:41.540Z,-1.80
2018-11-28T09:08:09.834Z,-1.70
2018-11-28T09:10:38.163Z,-1.70
2018-11-28T09:13:06.618Z,-1.70
2018-11-28T09:15:34.929Z,-1.60
2018-11-28T09:18:03.228Z,-1.60
2018-11-28T09:20:31.565Z,-1.80
2018-11-28T09:22:59.893Z,-1.90
2018-11-28T09:25:28.216Z,-1.60
2018-11-28T09:27:57.869Z,-1.40
2018-11-28T09:30:26.183Z,-1.40
2018-11-28T09:32:54.491Z,-1.30
2018-11-28T09:35:22.833Z,-1.20
2018-11-28T09:37:51.129Z,-1.30
2018-11-28T09:40:21.482Z,-1.60
2018-11-28T09:42:50.547Z,-1.30
2018-11-28T09:45:19.387Z,-1.50
2018-11-28T09:47:47.758Z,-1.40
2018-11-28T09:50:18.039Z,-1.50
2018-11-28T09:52:46.361Z,-1.30
2018-11-28T09:55:15.818Z,-1.20
2018-11-28T09:57:44.167Z,-1.30
2018-11-28T10:00:14.958Z,-1.10
2018-11-28T10:02:43.371Z,-1.00
2018-11-28T10:05:16.946Z,-0.90
2018-11-28T10:07:45.247Z,-0.90
2018-11-28T10:10:14.018Z,-0.80
2018-11-28T10:12:42.469Z,-0.70
2018-11-28T10:15:14.067Z,-0.80
2018-11-28T10:17:42.480Z,-0.80
2018-11-28T10:20:11.815Z,-0.90
2018-11-28T10:22:40.692Z,-0.70
2018-11-28T10:25:12.202Z,-0.60
2018-11-28T10:27:40.526Z,-0.70
2018-11-28T10:30:12.649Z,-0.70
2018-11-28T10:32:40.946Z,-0.70
2018-11-28T10:35:09.309Z,-0.60
2018-11-28T10:37:37.660Z,-0.60
2018-11-28T10:40:24.978Z,-0.50
2018-11-28T10:42:54.454Z,-0.50
2018-11-28T10:45:24.051Z,-0.40
2018-11-28T10:47:52.423Z,-0.40
2018-11-28T10:50:20.749Z,-0.30
2018-11-28T10:52:49.067Z,-0.30
2018-11-28T10:55:19.313Z,-0.20
2018-11-28T10:57:47.626Z,-0.10
2018-11-28T11:00:36.541Z,0.00
2018-11-28T11:03:11.651Z,0.20
2018-11-28T11:05:45.640Z,0.30
2018-11-28T11:08:19.355Z,0.20
2018-11-28T11:10:53.091Z,0.30
2018-11-28T11:13:26.834Z,0.30
2018-11-28T11:15:55.222Z,0.30
2018-11-28T11:18:23.607Z,0.50
2018-11-28T11:20:51.918Z,0.80
2018-11-28T11:23:20.255Z,0.70
2018-11-28T11:25:48.880Z,0.70
2018-11-28T11:28:17.545Z,0.70
2018-11-28T11:30:45.882Z,0.80
2018-11-28T11:33:14.302Z,1.00
2018-11-28T11:35:42.634Z,1.20
2018-11-28T11:38:10.958Z,1.20
2018-11-28T11:40:39.293Z,1.20
2018-11-28T11:43:07.974Z,1.00
2018-11-28T11:45:36.290Z,1.00
2018-11-28T11:48:04.639Z,1.20
2018-11-28T11:50:32.967Z,1.10
2018-11-28T11:53:01.266Z,1.00
2018-11-28T11:55:29.614Z,1.10
2018-11-28T11:57:57.927Z,1.10
2018-11-28T12:00:26.949Z,1.00
2018-11-28T12:03:02.807Z,1.10
2018-11-28T12:05:31.319Z,1.20
2018-11-28T12:07:59.523Z,1.10
2018-11-28T12:10:27.850Z,1.10
2018-11-28T12:12:56.153Z,1.10
2018-11-28T12:15:24.527Z,1.30
2018-11-28T12:17:52.831Z,1.10
2018-11-28T12:20:29.462Z,1.00
2018-11-28T12:22:57.758Z,1.20
2018-11-28T12:25:26.078Z,1.20
2018-11-28T12:27:54.377Z,1.20
2018-11-28T12:30:22.757Z,1.10
2018-11-28T12:32:51.070Z,1.20
2018-11-28T12:35:19.770Z,1.30
2018-11-28T12:37:48.091Z,1.10
2018-11-28T12:40:17.076Z,1.10
2018-11-28T12:42:47.929Z,1.10
2018-11-28T12:45:17.234Z,1.10
2018-11-28T12:47:46.250Z,1.10
2018-11-28T12:50:24.006Z,1.10
2018-11-28T12:52:53.270Z,1.10
2018-11-28T12:55:22.015Z,1.20
2018-11-28T12:57:51.283Z,1.30
2018-11-28T13:00:20.783Z,1.20
2018-11-28T13:02:49.128Z,1.20
2018-11-28T13:05:18.490Z,1.10
2018-11-28T13:07:46.806Z,0.90
2018-11-28T13:10:20.401Z,1.00
2018-11-28T13:12:49.641Z,1.20
2018-11-28T13:15:18.917Z,1.20
2018-11-28T13:17:47.242Z,1.30
2018-11-28T13:20:16.527Z,1.40
2018-11-28T13:22:45.679Z,1.60
2018-11-28T13:25:15.774Z,1.60
2018-11-28T13:27:44.177Z,1.80
2018-11-28T13:30:17.515Z,2.00
2018-11-28T13:32:46.278Z,2.20
2018-11-28T13:35:15.681Z,2.30
2018-11-28T13:37:45.114Z,2.50
2018-11-28T13:40:14.322Z,2.60
2018-11-28T13:42:42.733Z,2.70
2018-11-28T13:45:27.391Z,2.80
2018-11-28T13:47:56.846Z,3.00
2018-11-28T13:50:25.171Z,3.10
2018-11-28T13:52:54.423Z,3.20
2018-11-28T13:55:38.260Z,3.20
2018-11-28T13:58:04.166Z,3.20
2018-11-28T14:00:32.479Z,3.00
2018-11-28T14:03:00.802Z,3.10
2018-11-28T14:05:29.098Z,3.10
2018-11-28T14:07:57.410Z,3.00
2018-11-28T14:10:25.754Z,2.90
2018-11-28T14:12:54.080Z,2.70
2018-11-28T14:15:23.046Z,2.10
2018-11-28T14:17:55.637Z,1.70
2018-11-28T14:20:23.938Z,1.40
2018-11-28T14:22:52.254Z,1.20
2018-11-28T14:25:20.594Z,1.30
2018-11-28T14:27:48.953Z,1.40
2018-11-28T14:30:18.302Z,1.30
2018-11-28T14:32:46.866Z,1.10
2018-11-28T14:35:15.305Z,1.00
2018-11-28T14:37:43.713Z,0.90
2018-11-28T14:40:21.882Z,0.90
2018-11-28T14:42:55.418Z,1.00
2018-11-28T14:45:23.895Z,1.00
2018-11-28T14:47:52.540Z,1.10
2018-11-28T14:50:25.605Z,0.90
2018-11-28T14:52:54.939Z,0.70
2018-11-28T14:55:25.202Z,0.50
2018-11-28T14:57:53.518Z,0.50
2018-11-28T15:00:24.748Z,0.40
2018-11-28T15:02:56.273Z,0.40
2018-11-28T15:06:02.873Z,0.30
2018-11-28T15:08:31.770Z,0.00
2018-11-28T15:11:11.231Z,-0.20
2018-11-28T15:13:40.132Z,-0.20
2018-11-28T15:16:08.463Z,-0.30
2018-11-28T15:18:36.943Z,-0.50
2018-11-28T15:21:06.101Z,-0.60
2018-11-28T15:23:34.427Z,-0.70
2018-11-28T15:26:02.749Z,-1.00
2018-11-28T15:28:31.077Z,-1.10
2018-11-28T15:30:59.386Z,-1.20
2018-11-28T15:33:27.710Z,-1.20
2018-11-28T15:35:56.025Z,-1.30
2018-11-28T15:38:24.354Z,-1.30
2018-11-28T15:40:52.765Z,-1.30
2018-11-28T15:43:21.091Z,-1.40
2018-11-28T15:45:49.455Z,-1.50
2018-11-28T15:48:17.796Z,-1.50
2018-11-28T15:50:46.103Z,-1.50
2018-11-28T15:53:14.435Z,-1.40
2018-11-28T15:55:42.738Z,-1.50
2018-11-28T15:58:11.063Z,-1.50
2018-11-28T16:00:39.396Z,-1.60
2018-11-28T16:03:07.773Z,-1.60
2018-11-28T16:05:36.344Z,-1.60
2018-11-28T16:08:05.013Z,-1.70
2018-11-28T16:10:40.183Z,-1.80
2018-11-28T16:13:08.538Z,-1.80
2018-11-28T16:15:43.065Z,-1.80
2018-11-28T16:18:11.558Z,-1.70
2018-11-28T16:20:39.963Z,-1.80
2018-11-28T16:23:08.282Z,-1.80
2018-11-28T16:25:36.867Z,-2.00
2018-11-28T16:28:05.324Z,-2.10
2018-11-28T16:30:33.630Z,-2.10
2018-11-28T16:33:01.962Z,-2.10
2018-11-28T16:35:30.371Z,-2.20
2018-11-28T16:37:58.722Z,-2.30
2018-11-28T16:40:27.039Z,-2.30
2018-11-28T16:42:55.439Z,-2.40
2018-11-28T16:45:23.746Z,-2.50
2018-11-28T16:47:52.070Z,-2.50
2018-11-28T16:50:20.395Z,-2.60
2018-11-28T16:52:48.727Z,-2.60
2018-11-28T16:55:17.949Z,-2.70
2018-11-28T16:57:49.778Z,-2.70
2018-11-28T17:00:19.699Z,-2.80
2018-11-28T17:02:48.060Z,-2.90
2018-11-28T17:05:18.238Z,-3.00
2018-11-28T17:07:46.891Z,-3.10
2018-11-28T17:10:18.290Z,-3.10
2018-11-28T17:12:47.714Z,-3.20
2018-11-28T17:15:17.010Z,-3.20
2018-11-28T17:17:45.776Z,-3.20
2018-11-28T17:20:16.174Z,-3.20
2018-11-28T17:22:44.599Z,-3.20
2018-11-28T17:25:17.239Z,-3.30
2018-11-28T17:27:45.805Z,-3.30
2018-11-28T17:30:18.822Z,-3.30
2018-11-28T17:32:43.611Z,-3.30
2018-11-28T17:35:12.579Z,-3.30
2018-11-28T17:37:40.999Z,-3.30
2018-11-28T17:40:12.856Z,-3.30
2018-11-28T17:42:41.710Z,-3.40
2018-11-28T17:45:12.170Z,-3.50
2018-11-28T17:47:40.590Z,-3.60
2018-11-28T17:50:12.258Z,-3.60
2018-11-28T17:52:40.898Z,-3.60
2018-11-28T17:55:12.114Z,-3.60
2018-11-28T17:57:40.546Z,-3.70
2018-11-28T18:00:11.522Z,-3.70
2018-11-28T18:02:40.201Z,-3.80
2018-11-28T18:05:09.737Z,-3.80
2018-11-28T18:07:38.166Z,-3.90
2018-11-28T18:10:13.510Z,-3.90
2018-11-28T18:12:53.250Z,-3.90
2018-11-28T18:15:21.773Z,-3.90
2018-11-28T18:17:50.498Z,-3.90
2018-11-28T18:20:18.853Z,-4.00
2018-11-28T18:22:47.150Z,-4.00
2018-11-28T18:25:15.526Z,-4.10
2018-11-28T18:27:43.836Z,-4.10
2018-11-28T18:30:12.819Z,-4.20
2018-11-28T18:32:41.141Z,-4.20
2018-11-28T18:35:10.615Z,-4.10
2018-11-28T18:37:38.958Z,-4.10
2018-11-28T18:40:13.334Z,-4.10
2018-11-28T18:42:42.544Z,-4.30
2018-11-28T18:45:12.480Z,-4.10
2018-11-28T18:47:40.815Z,-4.40
2018-11-28T18:50:10.307Z,-4.40
2018-11-28T18:52:38.671Z,-4.40
2018-11-28T18:55:16.727Z,-4.40
2018-11-28T18:57:43.561Z,-4.40
2018-11-28T19:00:15.328Z,-4.40
2018-11-28T19:02:43.666Z,-4.30
2018-11-28T19:05:12.030Z,-4.20
2018-11-28T19:07:40.347Z,-4.30
2018-11-28T19:10:12.202Z,-4.30
2018-11-28T19:12:40.526Z,-4.30
2018-11-28T19:15:12.376Z,-4.30
2018-11-28T19:17:40.886Z,-4.30
2018-11-28T19:20:11.066Z,-4.30
2018-11-28T19:22:39.411Z,-4.40
2018-11-28T19:25:10.100Z,-4.40
2018-11-28T19:27:38.422Z,-4.50
2018-11-28T19:30:10.170Z,-4.50
2018-11-28T19:32:37.890Z,-4.60
2018-11-28T19:35:07.250Z,-4.60
2018-11-28T19:37:35.583Z,-4.60
2018-11-28T19:40:04.844Z,-4.60
2018-11-28T19:42:33.162Z,-4.70
2018-11-28T19:45:01.492Z,-4.70
2018-11-28T19:47:29.842Z,-4.70
2018-11-28T19:49:58.168Z,-4.60
2018-11-28T19:52:26.502Z,-4.70
2018-11-28T19:54:54.859Z,-4.80
2018-11-28T19:57:23.166Z,-4.80
2018-11-28T19:59:51.519Z,-4.80
2018-11-28T20:02:19.827Z,-4.80
2018-11-28T20:04:48.195Z,-4.80
2018-11-28T20:07:16.580Z,-4.70
2018-11-28T20:09:44.949Z,-4.80
2018-11-28T20:12:13.266Z,-4.70
2018-11-28T20:14:41.594Z,-4.70
2018-11-28T20:17:09.976Z,-4.70
2018-11-28T20:19:38.367Z,-4.70
2018-11-28T20:22:06.693Z,-4.60
2018-11-28T20:24:35.091Z,-4.60
2018-11-28T20:27:03.473Z,-4.60
2018-11-28T20:29:31.878Z,-4.60
2018-11-28T20:32:00.312Z,-4.50
2018-11-28T20:34:28.676Z,-4.50
2018-11-28T20:36:57.254Z,-4.40
2018-11-28T20:39:25.622Z,-4.40
2018-11-28T20:41:53.932Z,-4.30
2018-11-28T20:44:22.279Z,-4.30
2018-11-28T20:46:50.587Z,-4.40
2018-11-28T20:49:18.927Z,-4.40
2018-11-28T20:51:47.309Z,-4.40
2018-11-28T20:54:15.729Z,-4.50
2018-11-28T20:56:44.066Z,-4.50
2018-11-28T20:59:12.382Z,-4.60
2018-11-28T21:01:40.720Z,-4.50
2018-11-28T21:04:09.054Z,-4.60
2018-11-28T21:06:37.395Z,-4.70
2018-11-28T21:09:09.287Z,-4.70
2018-11-28T21:11:37.631Z,-4.70
2018-11-28T21:14:05.954Z,-4.70
2018-11-28T21:16:34.299Z,-4.70
2018-11-28T21:19:02.617Z,-4.90
2018-11-28T21:21:30.978Z,-4.90
2018-11-28T21:23:59.324Z,-4.90
2018-11-28T21:26:27.671Z,-4.90
2018-11-28T21:28:55.987Z,-5.00
2018-11-28T21:31:24.347Z,-5.10
2018-11-28T21:33:52.662Z,-5.10
2018-11-28T21:36:21.019Z,-5.20
2018-11-28T21:38:49.329Z,-5.10
2018-11-28T21:41:17.757Z,-5.20
2018-11-28T21:43:46.078Z,-5.20
2018-11-28T21:46:14.439Z,-5.20
2018-11-28T21:48:42.777Z,-5.20
2018-11-28T21:51:11.114Z,-5.20
2018-11-28T21:53:39.450Z,-5.10
2018-11-28T21:56:07.791Z,-5.20
2018-11-28T21:58:36.100Z,-5.20
2018-11-28T22:01:04.462Z,-5.30
2018-11-28T22:03:32.786Z,-5.30
2018-11-28T22:06:01.126Z,-5.30
2018-11-28T22:08:29.446Z,-5.40
2018-11-28T22:10:57.774Z,-5.40
2018-11-28T22:13:26.099Z,-5.50
2018-11-28T22:15:54.441Z,-5.60
2018-11-28T22:18:22.765Z,-5.50
2018-11-28T22:20:51.106Z,-5.50
2018-11-28T22:23:19.419Z,-5.60
2018-11-28T22:25:47.787Z,-5.50
2018-11-28T22:28:16.114Z,-5.60
2018-11-28T22:30:44.467Z,-5.60
2018-11-28T22:33:12.803Z,-5.60
2018-11-28T22:35:41.169Z,-5.50
2018-11-28T22:38:09.510Z,-5.50
2018-11-28T22:40:37.846Z,-5.60
2018-11-28T22:43:06.157Z,-5.40
2018-11-28T22:45:34.949Z,-5.10
2018-11-28T22:48:03.266Z,-4.70
2018-11-28T22:50:31.590Z,-4.70
2018-11-28T22:52:59.929Z,-4.80
2018-11-28T22:55:28.332Z,-4.80
2018-11-28T22:57:56.634Z,-4.90
2018-11-28T23:00:31.058Z,-5.00
2018-11-28T23:03:01.882Z,-5.20
2018-11-28T23:05:34.438Z,-5.10
2018-11-28T23:08:03.771Z,-5.00
2018-11-28T23:10:32.141Z,-5.10
2018-11-28T23:13:00.466Z,-5.40
2018-11-28T23:15:28.794Z,-5.50
2018-11-28T23:17:57.098Z,-5.30
2018-11-28T23:20:25.456Z,-5.10
2018-11-28T23:22:53.784Z,-5.10
2018-11-28T23:25:22.097Z,-5.40
2018-11-28T23:27:51.158Z,-5.30
2018-11-28T23:30:19.788Z,-5.20
2018-11-28T23:32:48.822Z,-5.30
2018-11-28T23:35:17.517Z,-5.20
2018-11-28T23:37:46.938Z,-5.20
2018-11-28T23:40:17.263Z,-5.10
2018-11-28T23:42:45.711Z,-5.30
2018-11-28T23:45:14.550Z,-5.40
2018-11-28T23:47:42.913Z,-5.40
2018-11-28T23:50:15.055Z,-5.40
2018-11-28T23:52:43.630Z,-5.20
2018-11-28T23:55:22.482Z,-5.10
2018-11-28T23:57:50.877Z,-5.10
